Time,TemperatureF,DewpointF,PressureIn,WindDirection,WindDirectionDegrees,WindSpeedMPH,WindSpeedGustMPH,Humidity,HourlyPrecipIn,Conditions,Clouds,dailyrainin,SoftwareType,DateUTC
2013-01-06 00:01:00,36.1,9.8,30.12,SW,215,3.0,4.0,33,0.00,,BKN250,0.00,VWS V14.01,2013-01-06 08:01:00,
2013-01-06 00:11:00,36.2,9.9,30.12,SW,216,2.0,4.0,33,0.00,,BKN250,0.00,VWS V14.01,2013-01-06 08:11:00,
2013-01-06 00:21:00,36.3,9.3,30.12,SW,216,3.0,3.0,32,0.00,,BKN250,0.00,VWS V14.01,2013-01-06 08:21:00,
2013-01-06 00:31:00,36.6,9.6,30.11,SW,216,2.0,4.0,32,0.00,,BKN250,0.00,VWS V14.01,2013-01-06 08:31:00,
2013-01-06 00:41:00,36.4,10.1,30.11,SW,216,3.0,4.0,33,0.00,,BKN250,0.00,VWS V14.01,2013-01-06 08:41:00,
2013-01-06 00:51:00,36.1,9.8,30.11,SW,216,1.0,3.0,33,0.00,,BKN250,0.00,VWS V14.01,2013-01-06 08:51:00,
2013-01-06 01:01:00,36.2,9.9,30.11,SW,215,3.0,3.0,33,0.00,,BKN250,0.00,VWS V14.01,2013-01-06 09:01:00,
2013-01-06 01:11:00,35.8,11.5,30.12,SW,216,1.0,4.0,36,0.00,,BKN250,0.00,VWS V14.01,2013-01-06 09:11:00,
2013-01-06 01:21:00,37.1,10.0,30.11,SW,215,3.0,3.0,32,0.00,,BKN250,0.00,VWS V14.01,2013-01-06 09:21:00,
2013-01-06 01:31:00,37.2,11.4,30.10,SW,216,1.0,3.0,34,0.00,,BKN250,0.00,VWS V14.01,2013-01-06 09:31:00,
2013-01-06 01:41:00,37.0,9.9,30.11,SW,216,2.0,3.0,32,0.00,,BKN250,0.00,VWS V14.01,2013-01-06 09:41:00,
2013-01-06 01:51:00,36.9,10.5,30.10,SW,216,2.0,3.0,33,0.00,,BKN250,0.00,VWS V14.01,2013-01-06 09:51:00,
2013-01-06 02:01:00,37.3,9.4,30.10,SW,215,1.0,3.0,31,0.00,,BKN250,0.00,VWS V14.01,2013-01-06 10:01:00,
2013-01-06 02:11:00,37.8,9.9,30.10,SW,216,2.0,3.0,31,0.00,,BKN250,0.00,VWS V14.01,2013-01-06 10:11:00,
2013-01-06 02:21:00,37.8,9.9,30.09,SW,216,1.0,4.0,31,0.00,,BKN250,0.00,VWS V14.01,2013-01-06 10:21:00,
2013-01-06 02:31:00,37.4,10.9,30.09,SW,216,3.0,4.0,33,0.00,,BKN250,0.00,VWS V14.01,2013-01-06 10:31:00,
2013-01-06 02:41:00,36.9,10.5,30.09,SW,216,3.0,3.0,33,0.00,,BKN250,0.00,VWS V14.01,2013-01-06 10:41:00,
2013-01-06 02:51:00,36.6,10.9,30.09,SW,215,3.0,3.0,34,0.00,,BKN250,0.00,VWS V14.01,2013-01-06 10:51:00,
2013-01-06 03:01:00,36.4,10.7,30.08,SW,216,2.0,3.0,34,0.00,,OVC220,0.00,VWS V14.01,2013-01-06 11:01:00,
2013-01-06 03:11:00,36.9,9.8,30.08,SW,215,0.0,3.0,32,0.00,,OVC220,0.00,VWS V14.01,2013-01-06 11:11:00,
2013-01-06 03:21:00,37.4,10.2,30.08,SW,216,0.0,0.0,32,0.00,,OVC220,0.00,VWS V14.01,2013-01-06 11:21:00,
2013-01-06 03:31:00,37.4,9.5,30.07,SW,216,0.0,0.0,31,0.00,,OVC220,0.00,VWS V14.01,2013-01-06 11:31:00,
2013-01-06 03:41:00,36.5,11.5,30.07,SW,216,2.0,4.0,35,0.00,,OVC220,0.00,VWS V14.01,2013-01-06 11:41:00,
2013-01-06 03:51:00,35.7,12.0,30.06,SW,216,2.0,3.0,37,0.00,,OVC220,0.00,VWS V14.01,2013-01-06 11:51:00,
2013-01-06 04:01:00,36.2,11.2,30.06,SW,215,0.0,3.0,35,0.00,,OVC220,0.00,VWS V14.01,2013-01-06 12:01:00,
2013-01-06 04:11:00,36.1,11.7,30.06,SW,216,0.0,0.0,36,0.00,,OVC220,0.00,VWS V14.01,2013-01-06 12:11:00,
2013-01-06 04:21:00,35.7,11.4,30.05,SW,216,0.0,0.0,36,0.00,,OVC220,0.00,VWS V14.01,2013-01-06 12:21:00,
2013-01-06 04:31:00,36.6,11.6,30.05,SW,216,0.0,0.0,35,0.00,,OVC220,0.00,VWS V14.01,2013-01-06 12:31:00,
2013-01-06 04:41:00,35.9,12.2,30.04,SW,216,0.0,0.0,37,0.00,,OVC220,0.00,VWS V14.01,2013-01-06 12:41:00,
2013-01-06 04:51:00,35.6,13.7,30.05,SW,216,0.0,0.0,40,0.00,,OVC220,0.00,VWS V14.01,2013-01-06 12:51:00,
2013-01-06 05:01:00,35.4,13.5,30.05,SW,215,0.0,0.0,40,0.00,,OVC220,0.00,VWS V14.01,2013-01-06 13:01:00,
2013-01-06 05:11:00,36.6,10.9,30.04,SW,216,0.0,0.0,34,0.00,,OVC220,0.00,VWS V14.01,2013-01-06 13:11:00,
2013-01-06 05:21:00,37.4,10.2,30.04,SW,215,0.0,0.0,32,0.00,,OVC220,0.00,VWS V14.01,2013-01-06 13:21:00,
2013-01-06 05:31:00,36.5,12.1,30.04,SW,216,2.0,3.0,36,0.00,,OVC220,0.00,VWS V14.01,2013-01-06 13:31:00,
2013-01-06 05:41:00,35.7,13.2,30.03,SW,215,2.0,3.0,39,0.00,,OVC220,0.00,VWS V14.01,2013-01-06 13:41:00,
2013-01-06 05:51:00,35.6,12.5,30.03,SW,216,2.0,4.0,38,0.00,,OVC220,0.00,VWS V14.01,2013-01-06 13:51:00,
2013-01-06 06:01:00,36.0,12.3,30.03,SW,216,2.0,3.0,37,0.00,,OVC220,0.00,VWS V14.01,2013-01-06 14:01:00,
2013-01-06 06:11:00,36.4,12.6,30.03,SW,216,1.0,2.0,37,0.00,,OVC220,0.00,VWS V14.01,2013-01-06 14:11:00,
2013-01-06 06:21:00,36.4,12.6,30.03,SW,216,0.0,2.0,37,0.00,,OVC220,0.00,VWS V14.01,2013-01-06 14:21:00,
2013-01-06 06:31:00,36.1,14.1,30.04,SW,216,0.0,0.0,40,0.00,,OVC220,0.00,VWS V14.01,2013-01-06 14:31:00,
2013-01-06 06:41:00,36.2,11.8,30.03,SW,216,0.0,0.0,36,0.00,,OVC220,0.00,VWS V14.01,2013-01-06 14:41:00,
2013-01-06 06:51:00,36.3,11.9,30.03,SW,215,0.0,0.0,36,0.00,,OVC220,0.00,VWS V14.01,2013-01-06 14:51:00,
2013-01-06 07:01:00,35.4,11.7,30.03,SW,216,2.0,3.0,37,0.00,,BKN200,0.00,VWS V14.01,2013-01-06 15:01:00,
2013-01-06 07:11:00,35.1,11.5,30.03,SW,215,1.0,3.0,37,0.00,,BKN200,0.00,VWS V14.01,2013-01-06 15:11:00,
2013-01-06 07:21:00,34.1,12.9,30.03,SW,216,3.0,4.0,41,0.00,,BKN200,0.00,VWS V14.01,2013-01-06 15:21:00,
2013-01-06 07:31:00,34.4,12.0,30.03,SW,215,3.0,3.0,39,0.00,,BKN200,0.00,VWS V14.01,2013-01-06 15:31:00,
2013-01-06 07:41:00,35.0,12.0,30.03,South,182,2.0,5.0,38,0.00,,BKN200,0.00,VWS V14.01,2013-01-06 15:41:00,
2013-01-06 07:51:00,35.3,11.6,30.03,SSW,203,3.0,6.0,37,0.00,,BKN200,0.00,VWS V14.01,2013-01-06 15:51:00,
2013-01-06 08:01:00,36.1,12.4,30.03,SSW,205,3.0,5.0,37,0.00,,BKN200,0.00,VWS V14.01,2013-01-06 16:01:00,
2013-01-06 08:11:00,37.5,12.4,30.03,SW,221,7.0,7.0,35,0.00,,BKN200,0.00,VWS V14.01,2013-01-06 16:11:00,
2013-01-06 08:21:00,39.2,11.8,30.03,SW,224,3.0,8.0,32,0.00,,BKN200,0.00,VWS V14.01,2013-01-06 16:21:00,
2013-01-06 08:31:00,40.4,12.2,30.03,SW,223,4.0,6.0,31,0.00,,BKN200,0.00,VWS V14.01,2013-01-06 16:31:00,
2013-01-06 08:41:00,41.4,12.3,30.03,ENE,73,2.0,4.0,30,0.00,,BKN200,0.00,VWS V14.01,2013-01-06 16:41:00,
2013-01-06 08:51:00,42.8,12.8,30.03,ENE,73,0.0,3.0,29,0.00,,BKN200,0.00,VWS V14.01,2013-01-06 16:51:00,
2013-01-06 09:01:00,45.0,13.1,30.02,ENE,78,1.0,4.0,27,0.00,,SCT200,0.00,VWS V14.01,2013-01-06 17:01:00,
2013-01-06 09:11:00,43.9,12.9,30.02,SW,221,3.0,6.0,28,0.00,,SCT200,0.00,VWS V14.01,2013-01-06 17:11:00,
2013-01-06 09:21:00,44.0,12.2,30.03,SW,221,0.0,5.0,27,0.00,,SCT200,0.00,VWS V14.01,2013-01-06 17:21:00,
2013-01-06 09:31:00,46.1,12.2,30.03,SW,221,0.0,3.0,25,0.00,,SCT200,0.00,VWS V14.01,2013-01-06 17:31:00,
2013-01-06 09:41:00,47.6,12.6,30.02,ENE,78,3.0,5.0,24,0.00,,SCT200,0.00,VWS V14.01,2013-01-06 17:41:00,
2013-01-06 09:51:00,48.1,13.0,30.02,ENE,59,2.0,5.0,24,0.00,,SCT200,0.00,VWS V14.01,2013-01-06 17:51:00,
2013-01-06 10:01:00,48.1,13.0,30.02,ENE,59,0.0,4.0,24,0.00,,SCT200,0.00,VWS V14.01,2013-01-06 18:01:00,
2013-01-06 10:11:00,47.3,12.4,30.01,NNE,30,4.0,7.0,24,0.00,,SCT200,0.00,VWS V14.01,2013-01-06 18:11:00,
2013-01-06 10:21:00,47.4,13.4,30.01,NNE,28,3.0,8.0,25,0.00,,SCT200,0.00,VWS V14.01,2013-01-06 18:21:00,
2013-01-06 10:31:00,48.2,14.0,30.01,NNE,24,6.0,7.0,25,0.00,,SCT200,0.00,VWS V14.01,2013-01-06 18:31:00,
2013-01-06 10:41:00,47.7,13.6,30.00,East,96,5.0,9.0,25,0.00,,SCT200,0.00,VWS V14.01,2013-01-06 18:41:00,
2013-01-06 10:51:00,47.6,13.5,29.99,NE,44,5.0,11.0,25,0.00,,SCT200,0.00,VWS V14.01,2013-01-06 18:51:00,
2013-01-06 11:01:00,48.8,14.6,29.99,North,360,5.0,9.0,25,0.00,,SCT200,0.00,VWS V14.01,2013-01-06 19:01:00,
2013-01-06 11:11:00,48.7,14.5,29.98,NE,34,2.0,8.0,25,0.00,,SCT200,0.00,VWS V14.01,2013-01-06 19:11:00,
2013-01-06 11:21:00,47.7,13.6,29.98,NNE,30,6.0,9.0,25,0.00,,SCT200,0.00,VWS V14.01,2013-01-06 19:21:00,
2013-01-06 11:31:00,46.8,13.7,29.97,NE,52,3.0,8.0,26,0.00,,SCT200,0.00,VWS V14.01,2013-01-06 19:31:00,
2013-01-06 11:41:00,46.7,14.5,29.96,NNE,28,6.0,8.0,27,0.00,,SCT200,0.00,VWS V14.01,2013-01-06 19:41:00,
2013-01-06 11:51:00,47.0,13.9,29.95,ENE,61,5.0,8.0,26,0.00,,SCT200,0.00,VWS V14.01,2013-01-06 19:51:00,
2013-01-06 12:01:00,47.3,13.3,29.95,ENE,72,0.0,7.0,25,0.00,,SCT150,0.00,VWS V14.01,2013-01-06 20:01:00,
2013-01-06 12:11:00,48.9,14.6,29.94,ENE,72,1.0,4.0,25,0.00,,SCT150,0.00,VWS V14.01,2013-01-06 20:11:00,
2013-01-06 12:21:00,49.1,14.8,29.94,NE,45,4.0,6.0,25,0.00,,SCT150,0.00,VWS V14.01,2013-01-06 20:21:00,
2013-01-06 12:31:00,48.6,14.4,29.93,NNE,25,3.0,8.0,25,0.00,,SCT150,0.00,VWS V14.01,2013-01-06 20:31:00,
2013-01-06 12:41:00,47.7,14.5,29.93,NNE,28,1.0,6.0,26,0.00,,SCT150,0.00,VWS V14.01,2013-01-06 20:41:00,
2013-01-06 12:51:00,48.6,15.3,29.92,NNE,30,4.0,6.0,26,0.00,,SCT150,0.00,VWS V14.01,2013-01-06 20:51:00,
2013-01-06 13:01:00,48.0,14.8,29.92,NE,52,6.0,8.0,26,0.00,,BKN150,0.00,VWS V14.01,2013-01-06 21:01:00,
2013-01-06 13:11:00,47.2,14.9,29.92,NE,38,1.0,6.0,27,0.00,,BKN150,0.00,VWS V14.01,2013-01-06 21:11:00,
2013-01-06 13:21:00,47.1,14.9,29.91,NE,38,3.0,6.0,27,0.00,,BKN150,0.00,VWS V14.01,2013-01-06 21:21:00,
2013-01-06 13:31:00,47.3,15.0,29.90,NE,44,0.0,6.0,27,0.00,,BKN150,0.00,VWS V14.01,2013-01-06 21:31:00,
2013-01-06 13:41:00,47.6,15.3,29.91,NE,44,2.0,3.0,27,0.00,,BKN150,0.00,VWS V14.01,2013-01-06 21:41:00,
2013-01-06 13:51:00,48.1,15.7,29.90,NE,44,0.0,2.0,27,0.00,,BKN150,0.00,VWS V14.01,2013-01-06 21:51:00,
2013-01-06 14:01:00,48.5,16.1,29.91,NE,44,1.0,3.0,27,0.00,,BKN250,0.00,VWS V14.01,2013-01-06 22:01:00,
2013-01-06 14:11:00,48.8,16.3,29.91,NE,42,2.0,4.0,27,0.00,,BKN250,0.00,VWS V14.01,2013-01-06 22:11:00,
2013-01-06 14:21:00,48.3,15.9,29.90,NE,53,4.0,7.0,27,0.00,,BKN250,0.00,VWS V14.01,2013-01-06 22:21:00,
2013-01-06 14:31:00,48.7,16.2,29.90,East,84,2.0,5.0,27,0.00,,BKN250,0.00,VWS V14.01,2013-01-06 22:31:00,
2013-01-06 14:41:00,48.8,16.3,29.90,NE,37,4.0,7.0,27,0.00,,BKN250,0.00,VWS V14.01,2013-01-06 22:41:00,
2013-01-06 14:51:00,49.0,16.5,29.90,NE,46,2.0,6.0,27,0.00,,BKN250,0.00,VWS V14.01,2013-01-06 22:51:00,
2013-01-06 15:01:00,48.5,16.1,29.90,NE,39,4.0,6.0,27,0.00,,BKN250,0.00,VWS V14.01,2013-01-06 23:01:00,
2013-01-06 15:11:00,48.1,15.7,29.90,ENE,73,3.0,6.0,27,0.00,,BKN250,0.00,VWS V14.01,2013-01-06 23:11:00,
2013-01-06 15:21:00,47.8,16.3,29.89,ENE,75,5.0,7.0,28,0.00,,BKN250,0.00,VWS V14.01,2013-01-06 23:21:00,
2013-01-06 15:31:00,48.7,17.1,29.89,East,84,4.0,7.0,28,0.00,,BKN250,0.00,VWS V14.01,2013-01-06 23:31:00,
2013-01-06 15:41:00,49.2,17.5,29.89,ESE,107,6.0,8.0,28,0.00,,BKN250,0.00,VWS V14.01,2013-01-06 23:41:00,
2013-01-06 15:51:00,49.2,17.5,29.89,ENE,60,3.0,8.0,28,0.00,,BKN250,0.00,VWS V14.01,2013-01-06 23:51:00,
2013-01-06 16:01:00,49.1,18.2,29.90,North,9,4.0,7.0,29,0.00,,BKN250,0.00,VWS V14.01,2013-01-07 00:01:00,
2013-01-06 16:11:00,48.0,17.3,29.90,North,355,5.0,10.0,29,0.00,,BKN250,0.00,VWS V14.01,2013-01-07 00:11:00,
2013-01-06 16:21:00,47.1,17.3,29.90,North,360,2.0,7.0,30,0.00,,BKN250,0.00,VWS V14.01,2013-01-07 00:21:00,
2013-01-06 16:31:00,46.4,17.4,29.89,North,360,2.0,4.0,31,0.00,,BKN250,0.00,VWS V14.01,2013-01-07 00:31:00,
2013-01-06 16:41:00,45.7,18.3,29.90,North,355,3.0,5.0,33,0.00,,BKN250,0.00,VWS V14.01,2013-01-07 00:41:00,
2013-01-06 16:51:00,45.0,16.9,29.89,NNW,348,0.0,5.0,32,0.00,,BKN250,0.00,VWS V14.01,2013-01-07 00:51:00,
2013-01-06 17:01:00,44.4,16.4,29.90,NNW,348,0.0,2.0,32,0.00,,BKN250,0.00,VWS V14.01,2013-01-07 01:01:00,
2013-01-06 17:11:00,43.9,16.0,29.90,NNW,348,1.0,2.0,32,0.00,,BKN250,0.00,VWS V14.01,2013-01-07 01:11:00,
2013-01-06 17:21:00,43.6,15.7,29.90,NNW,348,0.0,1.0,32,0.00,,BKN250,0.00,VWS V14.01,2013-01-07 01:21:00,
2013-01-06 17:31:00,42.4,16.0,29.90,NNW,348,0.0,0.0,34,0.00,,BKN250,0.00,VWS V14.01,2013-01-07 01:31:00,
2013-01-06 17:41:00,41.7,16.1,29.90,NNW,348,0.0,0.0,35,0.00,,BKN250,0.00,VWS V14.01,2013-01-07 01:41:00,
2013-01-06 17:51:00,41.6,16.0,29.91,NNW,346,2.0,3.0,35,0.00,,BKN250,0.00,VWS V14.01,2013-01-07 01:51:00,
2013-01-06 18:01:00,41.1,15.6,29.90,NNW,341,0.0,3.0,35,0.00,,SCT250,0.00,VWS V14.01,2013-01-07 02:01:00,
2013-01-06 18:11:00,41.4,15.1,29.90,NNW,340,0.0,3.0,34,0.00,,SCT250,0.00,VWS V14.01,2013-01-07 02:11:00,
2013-01-06 18:21:00,41.5,14.6,29.90,NNW,340,0.0,0.0,33,0.00,,SCT250,0.00,VWS V14.01,2013-01-07 02:21:00,
2013-01-06 18:31:00,41.1,14.9,29.90,NNW,340,0.0,0.0,34,0.00,,SCT250,0.00,VWS V14.01,2013-01-07 02:31:00,
2013-01-06 18:41:00,39.9,15.1,29.90,NNW,340,0.0,0.0,36,0.00,,SCT250,0.00,VWS V14.01,2013-01-07 02:41:00,
2013-01-06 18:51:00,39.8,15.0,29.90,NNW,340,0.0,0.0,36,0.00,,SCT250,0.00,VWS V14.01,2013-01-07 02:51:00,
2013-01-06 19:01:00,39.7,14.9,29.90,NNW,340,0.0,0.0,36,0.00,,SCT250,0.00,VWS V14.01,2013-01-07 03:01:00,
2013-01-06 19:11:00,38.6,14.6,29.91,NW,306,2.0,3.0,37,0.00,,SCT250,0.00,VWS V14.01,2013-01-07 03:11:00,
2013-01-06 19:21:00,37.2,14.5,29.91,NW,304,1.0,3.0,39,0.00,,SCT250,0.00,VWS V14.01,2013-01-07 03:21:00,
2013-01-06 19:31:00,37.0,14.9,29.91,NW,305,2.0,3.0,40,0.00,,SCT250,0.00,VWS V14.01,2013-01-07 03:31:00,
2013-01-06 19:41:00,37.0,14.4,29.91,NW,305,1.0,3.0,39,0.00,,SCT250,0.00,VWS V14.01,2013-01-07 03:41:00,
2013-01-06 19:51:00,37.0,14.9,29.91,NW,304,3.0,4.0,40,0.00,,SCT250,0.00,VWS V14.01,2013-01-07 03:51:00,
2013-01-06 20:01:00,38.6,14.6,29.91,WNW,298,3.0,7.0,37,0.00,,FEW250,0.00,VWS V14.01,2013-01-07 04:01:00,
2013-01-06 20:11:00,39.7,14.9,29.92,WNW,301,4.0,5.0,36,0.00,,FEW250,0.00,VWS V14.01,2013-01-07 04:11:00,
2013-01-06 20:21:00,40.1,14.7,29.92,WNW,300,0.0,4.0,35,0.00,,FEW250,0.00,VWS V14.01,2013-01-07 04:21:00,
2013-01-06 20:31:00,40.2,15.4,29.91,WNW,300,0.0,2.0,36,0.00,,FEW250,0.00,VWS V14.01,2013-01-07 04:31:00,
2013-01-06 20:41:00,40.3,14.8,29.91,WNW,300,0.0,0.0,35,0.00,,FEW250,0.00,VWS V14.01,2013-01-07 04:41:00,
2013-01-06 20:51:00,38.0,14.7,29.91,WSW,254,3.0,5.0,38,0.00,,FEW250,0.00,VWS V14.01,2013-01-07 04:51:00,
2013-01-06 21:01:00,36.9,14.9,29.91,WSW,252,1.0,5.0,40,0.00,,FEW250,0.00,VWS V14.01,2013-01-07 05:01:00,
2013-01-06 21:11:00,35.8,15.0,29.91,SW,236,2.0,5.0,42,0.00,,FEW250,0.00,VWS V14.01,2013-01-07 05:11:00,
2013-01-06 21:21:00,35.2,15.0,29.91,SW,215,3.0,6.0,43,0.00,,FEW250,0.00,VWS V14.01,2013-01-07 05:21:00,
2013-01-06 21:31:00,35.4,15.1,29.91,SSW,203,6.0,7.0,43,0.00,,FEW250,0.00,VWS V14.01,2013-01-07 05:31:00,
2013-01-06 21:41:00,36.6,15.1,29.91,SW,217,5.0,9.0,41,0.00,,FEW250,0.00,VWS V14.01,2013-01-07 05:41:00,
2013-01-06 21:51:00,37.1,15.0,29.91,SW,217,5.0,7.0,40,0.00,,FEW250,0.00,VWS V14.01,2013-01-07 05:51:00,
2013-01-06 22:01:00,37.4,14.7,29.91,SW,215,5.0,7.0,39,0.00,,FEW250,0.00,VWS V14.01,2013-01-07 06:01:00,
2013-01-06 22:11:00,37.4,14.7,29.91,SW,215,4.0,5.0,39,0.00,,FEW250,0.00,VWS V14.01,2013-01-07 06:11:00,
2013-01-06 22:21:00,37.5,14.8,29.91,SW,215,3.0,4.0,39,0.00,,FEW250,0.00,VWS V14.01,2013-01-07 06:21:00,
2013-01-06 22:31:00,36.9,14.9,29.92,SW,215,2.0,3.0,40,0.00,,FEW250,0.00,VWS V14.01,2013-01-07 06:31:00,
2013-01-06 22:41:00,35.9,14.5,29.92,SW,215,3.0,4.0,41,0.00,,FEW250,0.00,VWS V14.01,2013-01-07 06:41:00,
2013-01-06 22:51:00,34.8,14.1,29.92,SW,215,1.0,4.0,42,0.00,,FEW250,0.00,VWS V14.01,2013-01-07 06:51:00,
2013-01-06 23:01:00,34.4,14.8,29.92,SW,215,4.0,4.0,44,0.00,,FEW250,0.00,VWS V14.01,2013-01-07 07:01:00,
2013-01-06 23:11:00,34.7,14.5,29.92,SW,215,0.0,4.0,43,0.00,,FEW250,0.00,VWS V14.01,2013-01-07 07:11:00,
2013-01-06 23:21:00,35.1,14.9,29.92,SW,215,3.0,4.0,43,0.00,,FEW250,0.00,VWS V14.01,2013-01-07 07:21:00,
2013-01-06 23:31:00,34.6,14.4,29.92,SSW,213,3.0,5.0,43,0.00,,FEW250,0.00,VWS V14.01,2013-01-07 07:31:00,
2013-01-06 23:41:00,34.4,15.3,29.92,SE,143,1.0,6.0,45,0.00,,FEW250,0.00,VWS V14.01,2013-01-07 07:41:00,
2013-01-06 23:51:00,33.9,15.3,29.92,SE,145,1.0,5.0,46,0.00,,FEW250,0.00,VWS V14.01,2013-01-07 07:51:00,